Time;durP1;ratioP1;P1;durP2;ratioP2;P2;SDS_P1;SDS_P2;PMS_P1;PMS_P2;Temp;Humidity;BMP_temperature;BMP_pressure;BME280_temperature;BME280_humidity;BME280_pressure;Samples;Min_cycle;Max_cycle;Signal;HPM_P1;HPM_P2
2021/08/20 00:02:22;;;;;;;5.57;3.07;;;;;;;29.17;42.10;100886.38;127293;1091;64159;-86
2021/08/20 00:04:49;;;;;;;4.80;3.20;;;;;;;29.15;42.08;100880.23;127327;1093;64204;-85
2021/08/20 00:07:16;;;;;;;5.15;3.20;;;;;;;29.16;42.18;100885.53;127314;1093;64102;-85
2021/08/20 00:09:42;;;;;;;5.33;3.10;;;;;;;29.15;42.11;100889.27;127310;1093;64156;-84
2021/08/20 00:12:10;;;;;;;4.70;3.20;;;;;;;29.15;42.61;100880.23;127277;1091;64138;-85
2021/08/20 00:14:38;;;;;;;4.57;3.03;;;;;;;29.15;42.17;100885.67;127314;1092;64819;-85
2021/08/20 00:17:05;;;;;;;5.50;3.27;;;;;;;29.15;42.37;100877.52;127314;1093;64099;-85
2021/08/20 00:19:35;;;;;;;5.23;2.93;;;;;;;29.14;42.31;100878.55;127303;1093;64173;-85
2021/08/20 00:22:06;;;;;;;5.00;3.20;;;;;;;29.14;42.34;100875.84;127319;1093;64140;-85
2021/08/20 00:24:33;;;;;;;5.37;3.13;;;;;;;29.14;42.36;100873.12;127348;1093;64594;-84
2021/08/20 00:27:11;;;;;;;5.60;3.30;;;;;;;29.13;42.33;100876.84;127312;1093;64074;-85
2021/08/20 00:29:45;;;;;;;5.03;3.00;;;;;;;29.14;42.23;100870.40;127315;1093;64190;-85
2021/08/20 00:32:17;;;;;;;4.90;3.35;;;;;;;29.13;42.61;100865.97;127323;1091;64166;-85
2021/08/20 00:34:43;;;;;;;4.37;3.40;;;;;;;29.12;42.82;100873.25;127329;1093;64159;-85
2021/08/20 00:37:10;;;;;;;4.83;3.27;;;;;;;29.12;42.51;100865.09;127313;1093;64169;-85
2021/08/20 00:39:39;;;;;;;5.17;3.10;;;;;;;29.12;42.61;100875.97;127314;1093;64169;-85
2021/08/20 00:42:06;;;;;;;5.10;3.20;;;;;;;29.13;42.64;100871.41;127321;1093;64216;-85
2021/08/20 00:44:33;;;;;;;5.90;3.40;;;;;;;29.11;42.65;100868.85;127340;1093;64536;-85
2021/08/20 00:46:59;;;;;;;4.77;3.20;;;;;;;29.10;42.72;100867.98;127340;1093;64150;-85
2021/08/20 00:49:25;;;;;;;5.47;3.20;;;;;;;29.12;42.76;100872.41;127303;1093;64374;-85
2021/08/20 00:51:51;;;;;;;4.65;3.20;;;;;;;29.10;42.82;100873.42;127311;1093;64304;-84
2021/08/20 00:54:18;;;;;;;4.57;3.00;;;;;;;29.10;42.92;100875.30;127350;1093;65223;-85
2021/08/20 00:56:45;;;;;;;4.83;2.93;;;;;;;29.10;42.58;100875.30;127299;1093;64138;-86
2021/08/20 00:59:13;;;;;;;5.13;3.03;;;;;;;29.10;42.60;100876.14;127333;1092;62944;-85
2021/08/20 01:01:39;;;;;;;5.00;2.90;;;;;;;29.09;42.89;100877.17;127308;1092;64161;-85
2021/08/20 01:04:06;;;;;;;4.80;3.20;;;;;;;29.10;42.64;100872.58;127320;1093;64137;-85
2021/08/20 01:06:37;;;;;;;5.43;2.90;;;;;;;29.09;42.65;100871.73;127307;1093;64211;-85
2021/08/20 01:09:08;;;;;;;6.07;3.20;;;;;;;29.10;42.63;100878.02;127302;1093;64812;-85
2021/08/20 01:11:34;;;;;;;4.70;3.30;;;;;;;29.09;42.74;100876.30;127317;1093;64144;-84
2021/08/20 01:14:01;;;;;;;5.10;3.03;;;;;;;29.09;42.77;100882.61;127305;1093;64197;-85
2021/08/20 01:16:27;;;;;;;6.27;3.07;;;;;;;29.10;42.84;100883.45;127305;1093;64741;-85
2021/08/20 01:18:53;;;;;;;5.50;3.40;;;;;;;29.09;43.03;100884.45;127289;1093;64387;-85
2021/08/20 01:21:21;;;;;;;4.70;3.17;;;;;;;29.08;43.12;100880.90;127302;1092;64153;-85
2021/08/20 01:23:57;;;;;;;5.97;3.43;;;;;;;29.09;42.83;100885.33;127359;1093;65022;-85
2021/08/20 01:26:24;;;;;;;6.27;3.53;;;;;;;29.09;43.02;100881.73;127302;1092;64297;-85
2021/08/20 01:28:50;;;;;;;5.47;3.23;;;;;;;29.09;42.83;100876.30;127325;1093;64141;-85
2021/08/20 01:31:17;;;;;;;4.73;3.10;;;;;;;29.08;42.85;100872.74;127282;1093;64128;-85
2021/08/20 01:33:45;;;;;;;5.07;3.13;;;;;;;29.08;42.95;100880.03;127326;1092;64380;-85
2021/08/20 01:36:20;;;;;;;4.80;3.00;;;;;;;29.07;43.06;100879.19;127335;1092;64160;-85
2021/08/20 01:38:52;;;;;;;5.37;3.23;;;;;;;29.07;42.70;100872.91;127337;1093;64291;-85
2021/08/20 01:41:19;;;;;;;5.20;3.17;;;;;;;29.07;43.00;100871.03;127326;1093;64591;-85
2021/08/20 01:43:46;;;;;;;5.40;3.30;;;;;;;29.07;43.11;100870.19;127320;1093;63984;-86
2021/08/20 01:46:12;;;;;;;5.47;3.47;;;;;;;29.07;42.84;100872.91;127288;1093;64166;-85
2021/08/20 01:49:00;;;;;;;4.57;3.00;;;;;;;29.06;42.96;100869.32;127364;1093;64176;-85
2021/08/20 01:51:35;;;;;;;4.93;3.13;;;;;;;29.06;43.11;100868.48;127319;1092;64115;-85
2021/08/20 01:54:03;;;;;;;4.50;3.00;;;;;;;29.06;43.00;100869.32;127362;1093;64180;-85
2021/08/20 01:56:34;;;;;;;5.33;3.03;;;;;;;29.06;43.20;100858.45;127305;1092;64157;-85
2021/08/20 01:59:04;;;;;;;4.90;3.17;;;;;;;29.05;43.27;100866.77;127292;1093;64237;-85
2021/08/20 02:01:31;;;;;;;4.05;2.65;;;;;;;29.06;43.19;100868.48;127333;1093;64144;-85
2021/08/20 02:03:58;;;;;;;4.87;3.20;;;;;;;29.06;43.11;100860.33;127325;1092;64143;-85
2021/08/20 02:06:24;;;;;;;4.40;3.07;;;;;;;29.05;43.34;100862.17;127301;1093;64160;-85
2021/08/20 02:09:56;;;;;;;4.90;3.00;;;;;;;29.09;43.44;100863.60;112492;1212;600070;-85
2021/08/20 02:12:22;;;;;;;4.70;3.20;;;;;;;29.07;43.29;100862.57;112825;1221;64303;-84
2021/08/20 02:14:48;;;;;;;4.20;3.10;;;;;;;29.07;43.17;100866.91;112830;1215;58850;-86
2021/08/20 02:17:23;;;;;;;4.60;3.40;;;;;;;29.07;43.39;100866.52;112681;1220;60126;-89
2021/08/20 02:19:58;;;;;;;5.40;3.20;;;;;;;29.07;43.48;100867.80;112815;1214;58966;-85
2021/08/20 02:22:32;;;;;;;4.20;2.90;;;;;;;29.07;43.48;100869.80;112821;1220;64216;-83
2021/08/20 02:25:03;;;;;;;4.70;3.30;;;;;;;29.07;43.40;100875.25;112815;1221;59018;-90
2021/08/20 02:27:29;;;;;;;5.20;3.20;;;;;;;29.07;43.39;100880.68;112841;1215;59093;-85
2021/08/20 02:30:27;;;;;;;4.80;3.20;;;;;;;29.07;43.53;100881.23;112874;1220;63735;-87
2021/08/20 02:32:58;;;;;;;4.80;3.20;;;;;;;29.06;43.63;100882.57;112859;1220;63949;-86
2021/08/20 02:35:33;;;;;;;5.00;2.90;;;;;;;29.06;43.47;100887.66;112799;1220;59470;-86
2021/08/20 02:38:02;;;;;;;5.40;3.50;;;;;;;29.06;43.47;100889.84;112853;1220;59379;-87
2021/08/20 02:40:36;;;;;;;5.00;3.00;;;;;;;29.06;43.48;100893.25;112848;1214;63613;-87
2021/08/20 02:43:14;;;;;;;4.80;2.90;;;;;;;29.06;43.52;100890.59;112822;1220;64333;-84
2021/08/20 02:45:49;;;;;;;5.30;3.00;;;;;;;29.06;43.69;100889.12;112824;1214;59424;-87
2021/08/20 02:48:17;;;;;;;4.90;3.30;;;;;;;29.05;43.72;100889.33;112669;1220;59379;-84
2021/08/20 02:50:44;;;;;;;;;;;;;;;29.05;43.69;100885.89;112576;1215;63825;-83
2021/08/20 02:53:13;;;;;;;5.00;3.20;;;;;;;29.03;43.52;100886.67;112631;1217;59838;-88
2021/08/20 02:55:42;;;;;;;4.90;3.30;;;;;;;29.04;43.63;100890.60;112658;1215;59440;-84
2021/08/20 02:58:07;;;;;;;;;;;;;;;29.04;43.70;100886.60;112635;1214;59416;-84
2021/08/20 03:00:41;;;;;;;5.00;3.10;;;;;;;29.02;43.49;100890.77;112724;1220;59437;-85
2021/08/20 03:03:24;;;;;;;5.00;3.00;;;;;;;29.03;43.68;100893.80;112802;1219;65418;-86
2021/08/20 03:06:15;;;;;;;5.30;3.40;;;;;;;29.03;43.80;100894.34;112908;1216;59436;-83
2021/08/20 03:08:50;;;;;;;4.80;3.10;;;;;;;29.03;43.56;100897.20;112496;1217;59331;-86
2021/08/20 03:11:29;;;;;;;4.40;3.20;;;;;;;29.03;43.82;100893.98;112455;1216;64448;-86
2021/08/20 03:14:03;;;;;;;;;;;;;;;29.03;43.76;100899.06;112472;1223;63990;-86
2021/08/20 03:16:29;;;;;;;4.50;3.20;;;;;;;29.02;43.66;100903.55;112540;1219;59508;-85
2021/08/20 03:19:02;;;;;;;5.00;3.50;;;;;;;29.02;43.79;100903.64;112506;1222;59480;-85
2021/08/20 03:21:32;;;;;;;5.40;3.20;;;;;;;29.02;43.71;100907.83;112275;1216;63645;-86
2021/08/20 03:24:02;;;;;;;5.90;3.40;;;;;;;29.02;43.66;100907.31;112294;1217;64069;-85
2021/08/20 03:26:44;;;;;;;4.40;3.20;;;;;;;29.02;43.74;100904.05;112484;1217;59372;-90
2021/08/20 03:29:18;;;;;;;6.00;3.50;;;;;;;29.01;43.90;100903.71;112135;1219;59377;-86
2021/08/20 03:31:54;;;;;;;4.10;3.10;;;;;;;29.02;43.75;100902.46;112465;1219;63624;-85
2021/08/20 03:34:28;;;;;;;5.00;3.50;;;;;;;29.02;43.67;100908.20;112432;1217;74015;-86
2021/08/20 03:37:04;;;;;;;4.50;3.20;;;;;;;29.02;43.65;100909.66;112464;1219;59477;-85
2021/08/20 03:39:50;;;;;;;5.50;3.70;;;;;;;29.02;43.82;100920.90;112309;1223;59370;-82
2021/08/20 03:42:15;;;;;;;4.60;2.90;;;;;;;29.01;43.94;100922.19;112233;1217;63509;-91
2021/08/20 03:44:51;;;;;;;6.00;3.40;;;;;;;29.02;43.92;100921.59;112518;1222;64096;-83
2021/08/20 03:47:17;;;;;;;5.20;3.30;;;;;;;29.02;43.82;100919.58;113021;1219;60374;-84
2021/08/20 03:49:43;;;;;;;4.90;3.10;;;;;;;29.03;43.87;100916.84;112951;1212;59383;-84
2021/08/20 03:52:12;;;;;;;4.50;3.10;;;;;;;29.03;44.00;100918.60;112884;1216;59543;-86
2021/08/20 03:54:38;;;;;;;4.90;3.40;;;;;;;29.03;43.66;100919.31;112971;1211;64185;-86
2021/08/20 03:57:04;;;;;;;4.90;3.10;;;;;;;29.04;43.84;100920.71;112962;1219;59411;-86
2021/08/20 03:59:37;;;;;;;4.90;3.40;;;;;;;29.03;43.85;100927.80;112960;1219;59376;-90
2021/08/20 04:02:31;;;;;;;4.90;3.30;;;;;;;29.03;43.90;100931.62;112988;1221;63899;-83
2021/08/20 04:05:06;;;;;;;4.70;3.40;;;;;;;29.03;43.80;100935.45;112486;1222;64261;-86
2021/08/20 04:07:34;;;;;;;4.80;3.30;;;;;;;29.03;43.90;100936.95;112500;1219;59391;-88
2021/08/20 04:10:05;;;;;;;5.50;3.30;;;;;;;29.03;43.89;100939.80;112462;1219;59394;-88
2021/08/20 04:12:30;;;;;;;7.10;3.40;;;;;;;29.03;44.02;100947.41;112426;1224;64609;-88
2021/08/20 04:15:05;;;;;;;6.70;3.10;;;;;;;29.03;43.86;100946.16;112504;1223;64037;-89
2021/08/20 04:17:34;;;;;;;5.10;3.10;;;;;;;29.03;43.83;100947.55;112299;1218;59365;-85
2021/08/20 04:20:05;;;;;;;4.40;3.00;;;;;;;29.03;43.85;100949.04;112507;1224;59384;-85
2021/08/20 04:22:33;;;;;;;4.70;3.20;;;;;;;29.02;43.71;100950.19;112126;1222;64767;-85
2021/08/20 04:25:30;;;;;;;4.70;3.20;;;;;;;29.03;43.73;100951.78;111589;1228;62743;-86
2021/08/20 04:28:01;;;;;;;5.30;3.40;;;;;;;29.02;43.62;100951.28;111738;1228;59478;-88
2021/08/20 04:30:41;;;;;;;4.40;3.10;;;;;;;29.03;43.76;100953.26;111691;1228;59403;-88
2021/08/20 04:33:16;;;;;;;5.70;3.40;;;;;;;29.03;44.03;100953.24;111706;1228;65415;-80
2021/08/20 04:35:45;;;;;;;4.40;3.30;;;;;;;29.03;43.85;100957.36;111718;1228;64245;-83
2021/08/20 04:38:11;;;;;;;5.00;3.30;;;;;;;29.03;43.78;100960.66;111720;1228;59459;-87
2021/08/20 04:40:56;;;;;;;4.80;3.30;;;;;;;29.03;43.74;100958.08;111763;1229;59387;-84
2021/08/20 04:43:22;;;;;;;5.10;3.20;;;;;;;29.03;43.73;100959.58;111973;1225;59675;-85
2021/08/20 04:45:53;;;;;;;5.20;3.30;;;;;;;29.03;43.67;100957.55;112026;1228;59487;-91
2021/08/20 04:48:19;;;;;;;5.50;3.30;;;;;;;29.03;43.70;100958.28;112004;1221;59381;-85
2021/08/20 04:50:57;;;;;;;4.00;2.70;;;;;;;29.03;43.82;100963.55;112019;1225;59464;-87
2021/08/20 04:53:27;;;;;;;4.80;3.10;;;;;;;29.04;43.73;100962.56;112104;1225;63757;-85
2021/08/20 04:56:07;;;;;;;5.50;3.60;;;;;;;29.04;43.71;100963.81;112028;1226;64114;-83
2021/08/20 04:58:42;;;;;;;5.40;3.60;;;;;;;29.04;43.61;100964.16;112101;1226;59393;-90
2021/08/20 05:01:11;;;;;;;6.20;3.70;;;;;;;29.03;43.71;100968.37;112399;1224;59365;-85
2021/08/20 05:03:36;;;;;;;5.30;3.60;;;;;;;29.03;43.71;100963.32;112799;1219;63657;-88
2021/08/20 05:06:05;;;;;;;5.60;3.50;;;;;;;29.03;43.65;100962.80;112890;1214;59499;-86
2021/08/20 05:08:40;;;;;;;6.70;3.80;;;;;;;29.03;43.32;100963.55;112830;1219;59751;-84
2021/08/20 05:11:09;;;;;;;5.00;3.00;;;;;;;29.03;43.39;100965.55;112709;1219;59378;-85
2021/08/20 05:13:35;;;;;;;;;;;;;;;29.03;43.51;100963.20;112904;1220;64880;-84
2021/08/20 05:16:01;;;;;;;5.40;3.50;;;;;;;29.01;43.19;100964.48;112884;1218;59435;-86
2021/08/20 05:18:32;;;;;;;5.70;3.50;;;;;;;29.01;43.34;100966.96;112802;1219;59595;-86
2021/08/20 05:20:57;;;;;;;5.10;3.30;;;;;;;29.01;43.24;100969.30;112868;1220;59390;-85
2021/08/20 05:23:32;;;;;;;5.70;3.70;;;;;;;29.01;43.11;100970.95;112895;1221;59353;-93
2021/08/20 05:25:58;;;;;;;6.20;3.90;;;;;;;29.02;43.07;100971.11;112679;1214;65350;-87
2021/08/20 05:28:24;;;;;;;5.90;3.70;;;;;;;29.02;43.13;100969.99;112671;1221;59344;-84
2021/08/20 05:30:50;;;;;;;5.50;3.40;;;;;;;29.02;42.92;100972.51;112629;1216;59486;-85
2021/08/20 05:33:23;;;;;;;6.40;4.00;;;;;;;29.02;42.71;100976.11;112738;1216;59378;-85
2021/08/20 05:35:48;;;;;;;6.20;3.50;;;;;;;29.03;42.67;100980.59;112712;1219;65128;-87
2021/08/20 05:38:15;;;;;;;4.70;3.40;;;;;;;29.03;42.51;100977.67;112610;1221;59595;-87
2021/08/20 05:40:43;;;;;;;7.30;4.00;;;;;;;29.03;42.40;100982.91;112611;1214;59469;-85
2021/08/20 05:43:09;;;;;;;5.90;4.40;;;;;;;29.03;42.16;100986.34;112724;1220;64034;-84
2021/08/20 05:45:37;;;;;;;8.70;4.80;;;;;;;29.01;41.92;100988.73;112666;1219;59458;-84
2021/08/20 05:48:06;;;;;;;12.70;5.00;;;;;;;28.99;41.46;100988.98;112832;1216;59233;-85
2021/08/20 05:50:44;;;;;;;8.60;4.40;;;;;;;28.95;40.96;100988.65;112791;1215;59328;-86
2021/08/20 05:53:19;;;;;;;11.10;4.40;;;;;;;28.91;40.23;100992.28;112716;1214;63921;-82
2021/08/20 05:55:48;;;;;;;12.70;4.70;;;;;;;28.85;39.71;100999.40;112703;1221;63401;-86
2021/08/20 05:58:13;;;;;;;8.20;4.80;;;;;;;28.80;39.58;101002.31;112720;1219;59412;-87
2021/08/20 06:00:42;;;;;;;10.20;4.70;;;;;;;28.75;39.25;100995.52;112657;1219;59311;-88
2021/08/20 06:03:20;;;;;;;8.50;5.00;;;;;;;28.72;38.81;100994.77;112690;1214;63012;-84
2021/08/20 06:05:47;;;;;;;9.60;4.60;;;;;;;28.69;38.65;100994.50;112633;1220;65072;-85
2021/08/20 06:08:13;;;;;;;9.90;4.80;;;;;;;28.67;38.44;100997.40;112767;1220;59932;-86
2021/08/20 06:10:47;;;;;;;10.40;4.80;;;;;;;28.65;38.23;101003.79;112870;1220;59358;-89
2021/08/20 06:13:19;;;;;;;14.40;5.40;;;;;;;28.61;37.92;101001.04;112869;1219;63634;-84
2021/08/20 06:15:48;;;;;;;11.90;5.30;;;;;;;28.57;37.77;100999.80;112765;1216;64129;-88
2021/08/20 06:18:17;;;;;;;10.40;5.20;;;;;;;28.54;37.46;101000.30;112876;1220;60255;-85
2021/08/20 06:20:51;;;;;;;11.80;5.30;;;;;;;28.52;37.39;100999.64;112936;1216;59354;-84
2021/08/20 06:23:26;;;;;;;11.60;5.30;;;;;;;28.51;37.08;101000.81;112775;1223;63719;-87
2021/08/20 06:26:07;;;;;;;14.10;5.20;;;;;;;28.50;37.00;101002.20;112935;1221;65789;-86
2021/08/20 06:28:32;;;;;;;11.00;4.90;;;;;;;28.49;36.70;101001.25;112927;1219;60116;-82
2021/08/20 06:31:08;;;;;;;12.40;4.90;;;;;;;28.49;36.78;101002.70;112961;1219;60186;-90
2021/08/20 06:33:43;;;;;;;10.40;5.00;;;;;;;28.49;36.94;101000.50;112900;1216;63638;-87
2021/08/20 06:36:16;;;;;;;9.40;5.10;;;;;;;28.50;36.88;100996.92;112950;1216;66615;-87
2021/08/20 06:39:03;;;;;;;12.70;5.00;;;;;;;28.53;36.67;101000.81;112783;1221;60186;-87
2021/08/20 06:41:28;;;;;;;12.90;4.70;;;;;;;28.55;36.28;101000.99;112942;1219;60620;-86
2021/08/20 06:44:17;;;;;;;9.70;5.10;;;;;;;28.57;36.30;101004.04;112839;1218;65060;-86
2021/08/20 06:46:57;;;;;;;10.30;4.60;;;;;;;28.58;36.29;101003.23;112933;1211;64672;-91
2021/08/20 06:49:51;;;;;;;12.50;4.80;;;;;;;28.56;36.22;100999.89;112709;1219;60195;-90
2021/08/20 06:52:30;;;;;;;;;;;;;;;;;;;;;
2021/08/20 06:54:57;;;;;;;;;;;;;;;28.57;35.76;101003.81;112839;1220;64705;-84
2021/08/20 06:57:28;;;;;;;10.30;4.90;;;;;;;28.56;35.69;101006.30;112920;1218;65861;-83
2021/08/20 07:00:01;;;;;;;9.10;5.10;;;;;;;28.57;35.81;101008.04;112833;1219;60205;-85
2021/08/20 07:02:30;;;;;;;11.60;4.80;;;;;;;28.58;35.67;101012.36;112938;1216;60150;-86
2021/08/20 07:04:56;;;;;;;8.30;4.70;;;;;;;28.60;35.78;101012.96;112856;1213;63714;-89
2021/08/20 07:07:33;;;;;;;8.80;4.30;;;;;;;28.60;35.57;101013.63;112850;1211;65771;-86
2021/08/20 07:09:59;;;;;;;9.80;4.50;;;;;;;28.61;35.37;101016.44;112885;1212;60579;-84
2021/08/20 07:12:25;;;;;;;10.50;4.60;;;;;;;28.63;35.23;101015.38;112953;1212;60205;-84
2021/08/20 07:15:02;;;;;;;;;;;;;;;28.64;35.26;101012.23;112865;1220;63709;-86
2021/08/20 07:17:38;;;;;;;;;;;;;;;;;;;;;
2021/08/20 07:20:24;;;;;;;7.20;4.20;;;;;;;28.65;35.38;101011.71;112888;1214;60183;-85
2021/08/20 07:23:04;;;;;;;8.20;4.10;;;;;;;28.68;35.18;101013.85;112632;1215;60358;-83
2021/08/20 07:25:45;;;;;;;7.90;4.00;;;;;;;28.70;35.13;101014.38;112947;1219;64636;-84
2021/08/20 07:28:13;;;;;;;6.80;4.20;;;;;;;28.70;35.05;101011.05;112939;1221;64755;-84
2021/08/20 07:30:48;;;;;;;6.10;4.00;;;;;;;28.70;34.97;101012.91;112890;1215;60212;-85
2021/08/20 07:33:36;;;;;;;9.70;4.00;;;;;;;28.71;35.05;101014.98;112926;1220;60273;-86
2021/08/20 07:36:03;;;;;;;8.70;4.20;;;;;;;28.70;34.93;101012.10;112670;1216;64550;-85
2021/08/20 07:38:29;;;;;;;7.00;4.10;;;;;;;28.71;34.83;101014.56;112739;1221;64965;-84
2021/08/20 07:40:54;;;;;;;10.20;3.80;;;;;;;28.73;34.82;101017.33;112793;1216;60273;-83
2021/08/20 07:43:20;;;;;;;7.10;3.80;;;;;;;28.74;34.92;101017.85;112995;1219;60179;-83
2021/08/20 07:45:46;;;;;;;8.60;3.70;;;;;;;28.77;34.70;101021.07;112852;1220;59127;-82
2021/08/20 07:48:13;;;;;;;5.60;3.50;;;;;;;28.79;34.65;101020.73;112836;1219;60215;-86
2021/08/20 07:50:57;;;;;;;8.10;3.80;;;;;;;28.79;34.47;101018.84;112740;1214;60336;-87
2021/08/20 07:53:24;;;;;;;6.90;3.80;;;;;;;28.78;34.41;101011.73;112875;1214;60743;-85
2021/08/20 07:56:01;;;;;;;;;;;;;;;;;;;;;
2021/08/20 07:58:34;;;;;;;8.60;3.70;;;;;;;28.81;34.42;101012.48;112880;1216;66522;-89
2021/08/20 08:01:03;;;;;;;7.10;4.00;;;;;;;28.82;34.34;101012.04;112856;1212;60524;-83
2021/08/20 08:03:29;;;;;;;;;;;;;;;28.83;34.50;101013.52;112930;1219;60193;-84
2021/08/20 08:06:19;;;;;;;6.50;3.50;;;;;;;28.83;34.48;101011.73;112804;1214;60193;-86
2021/08/20 08:08:59;;;;;;;5.50;3.20;;;;;;;28.85;34.60;101009.15;112632;1219;65115;-86
2021/08/20 08:11:30;;;;;;;6.80;3.40;;;;;;;28.87;34.78;101005.50;112636;1218;60168;-85
2021/08/20 08:14:03;;;;;;;8.30;3.80;;;;;;;28.89;34.84;101006.30;112674;1222;60265;-93
2021/08/20 08:16:40;;;;;;;7.20;3.80;;;;;;;28.90;35.13;101011.05;112523;1219;64792;-90
2021/08/20 08:19:28;;;;;;;7.30;3.70;;;;;;;28.90;35.01;101010.27;112564;1223;65548;-86
2021/08/20 08:22:20;;;;;;;7.30;3.50;;;;;;;28.91;35.03;101002.92;112678;1214;60261;-84
2021/08/20 08:24:54;;;;;;;4.70;3.20;;;;;;;28.92;35.02;100999.92;112192;1218;60212;-86
2021/08/20 08:27:20;;;;;;;7.20;3.80;;;;;;;28.94;35.17;101002.86;112179;1220;64664;-87
2021/08/20 08:29:58;;;;;;;7.40;3.70;;;;;;;28.95;35.14;101000.80;112066;1226;65016;-88
2021/08/20 08:32:29;;;;;;;;;;;;;;;28.96;35.08;100997.79;112159;1225;60335;-84
2021/08/20 08:35:14;;;;;;;5.50;3.40;;;;;;;28.95;35.04;100997.69;112148;1217;60301;-83
2021/08/20 08:38:00;;;;;;;5.80;3.40;;;;;;;28.96;35.16;100994.30;111862;1225;63998;-85
2021/08/20 08:40:26;;;;;;;5.30;3.20;;;;;;;28.97;35.03;100996.71;111983;1224;64806;-85
2021/08/20 08:42:53;;;;;;;7.50;3.80;;;;;;;28.99;34.92;100994.77;111968;1224;60297;-83
2021/08/20 08:45:19;;;;;;;5.40;3.70;;;;;;;29.00;35.08;100995.19;111987;1218;60312;-84
2021/08/20 08:47:45;;;;;;;7.50;3.80;;;;;;;29.01;35.17;100990.52;112156;1216;60338;-83
2021/08/20 08:50:11;;;;;;;5.60;3.70;;;;;;;29.02;35.16;100988.83;112411;1223;60169;-90
2021/08/20 08:52:46;;;;;;;6.50;3.80;;;;;;;29.03;34.84;100986.67;112177;1218;60228;-92
2021/08/20 08:55:11;;;;;;;6.20;3.60;;;;;;;29.04;35.08;100985.90;112269;1225;60638;-86
2021/08/20 08:57:37;;;;;;;5.60;3.30;;;;;;;29.05;34.76;100985.84;112314;1219;60177;-85
2021/08/20 09:00:05;;;;;;;6.00;3.70;;;;;;;29.05;34.99;100980.54;112464;1219;60298;-84
2021/08/20 09:02:36;;;;;;;7.20;3.80;;;;;;;29.05;34.90;100983.39;112584;1214;60183;-89
2021/08/20 09:05:11;;;;;;;6.60;3.40;;;;;;;29.06;34.95;100984.02;112822;1221;60289;-85
2021/08/20 09:08:03;;;;;;;4.70;3.30;;;;;;;29.07;34.83;100985.45;112852;1221;63756;-85
2021/08/20 09:10:38;;;;;;;5.60;3.70;;;;;;;29.07;34.84;100988.62;112885;1214;66078;-86
2021/08/20 09:13:07;;;;;;;7.80;3.40;;;;;;;29.08;34.68;100985.50;112894;1220;60144;-87
2021/08/20 09:15:36;;;;;;;5.60;3.50;;;;;;;29.08;34.75;100985.27;112916;1216;60115;-87
2021/08/20 09:18:11;;;;;;;;;;;;;;;29.09;34.72;100984.14;112984;1214;64748;-87
2021/08/20 09:20:46;;;;;;;;;;;;;;;;;;;;;
2021/08/20 09:23:45;;;;;;;5.50;3.30;;;;;;;29.07;34.80;100982.10;112959;1219;60179;-94
2021/08/20 09:26:30;;;;;;;5.70;3.40;;;;;;;29.08;34.54;100986.21;112918;1216;60353;-88
2021/08/20 09:29:17;;;;;;;5.40;3.40;;;;;;;29.09;34.62;100983.05;112952;1219;73950;-82
2021/08/20 09:31:50;;;;;;;4.70;3.30;;;;;;;29.08;34.79;100986.88;112924;1218;65108;-86
2021/08/20 09:34:34;;;;;;;4.80;3.40;;;;;;;29.09;34.77;100988.97;112962;1219;60135;-88
2021/08/20 09:37:14;;;;;;;5.50;3.60;;;;;;;29.09;34.59;100990.09;112953;1213;60150;-87
2021/08/20 09:39:56;;;;;;;5.70;3.60;;;;;;;29.09;34.42;100988.42;112928;1220;63574;-86
2021/08/20 09:42:27;;;;;;;6.10;3.50;;;;;;;29.09;34.71;100985.70;112979;1216;64954;-85
2021/08/20 09:45:32;;;;;;;5.30;3.50;;;;;;;29.09;34.51;100986.77;112959;1219;60326;-84
2021/08/20 09:48:01;;;;;;;5.30;3.50;;;;;;;29.09;34.34;100980.82;112585;1219;60342;-86
2021/08/20 09:50:42;;;;;;;;;;;;;;;29.10;34.45;100979.66;112559;1219;64700;-89
2021/08/20 09:53:17;;;;;;;5.60;3.30;;;;;;;29.08;34.68;100976.19;112544;1223;66042;-87
2021/08/20 09:55:47;;;;;;;7.20;3.20;;;;;;;29.09;34.32;100974.73;112541;1221;60706;-84
2021/08/20 09:58:21;;;;;;;5.20;3.50;;;;;;;29.09;34.56;100971.77;112425;1217;60196;-84
2021/08/20 10:01:13;;;;;;;5.00;3.40;;;;;;;29.09;34.49;100972.84;112550;1214;63741;-85
2021/08/20 10:03:41;;;;;;;6.10;3.60;;;;;;;29.09;34.47;100973.42;111982;1220;65916;-85
2021/08/20 10:06:38;;;;;;;5.70;3.80;;;;;;;29.09;34.45;100971.95;112007;1221;60177;-86
2021/08/20 10:09:24;;;;;;;6.20;3.30;;;;;;;29.10;34.55;100968.24;111978;1220;60231;-87
2021/08/20 10:11:52;;;;;;;5.80;3.20;;;;;;;29.11;34.38;100964.36;112010;1222;63889;-86
2021/08/20 10:14:36;;;;;;;5.70;3.30;;;;;;;29.11;34.62;100963.64;112066;1219;65076;-88
2021/08/20 10:17:09;;;;;;;5.10;3.20;;;;;;;29.12;34.47;100962.65;112077;1219;60259;-89
2021/08/20 10:19:37;;;;;;;5.00;3.40;;;;;;;29.11;34.14;100958.34;112310;1216;60227;-90
2021/08/20 10:22:03;;;;;;;5.30;3.50;;;;;;;29.12;34.31;100957.86;111975;1219;63316;-87
2021/08/20 10:24:36;;;;;;;4.70;3.40;;;;;;;29.13;34.28;100956.58;111978;1218;60060;-87
2021/08/20 10:27:06;;;;;;;6.00;3.20;;;;;;;29.13;34.35;100956.23;112016;1221;60186;-87
2021/08/20 10:29:38;;;;;;;7.00;3.40;;;;;;;29.13;34.22;100952.92;112170;1219;60216;-84
2021/08/20 10:32:14;;;;;;;5.90;3.50;;;;;;;29.13;34.29;100953.25;112432;1216;63718;-85
2021/08/20 10:34:40;;;;;;;4.80;3.30;;;;;;;29.13;34.27;100950.21;112095;1216;64979;-87
2021/08/20 10:37:19;;;;;;;6.60;3.60;;;;;;;29.13;34.46;100944.76;112057;1217;60224;-87
2021/08/20 10:39:46;;;;;;;4.70;3.20;;;;;;;29.13;34.16;100942.91;112008;1224;60335;-83
2021/08/20 10:42:14;;;;;;;4.70;3.30;;;;;;;29.13;34.05;100940.21;112567;1220;63400;-83
2021/08/20 10:44:47;;;;;;;5.60;3.50;;;;;;;29.14;34.12;100936.00;112850;1220;64746;-83
2021/08/20 10:47:27;;;;;;;5.10;3.60;;;;;;;29.14;34.07;100935.92;112642;1212;60371;-83
2021/08/20 10:50:12;;;;;;;;;;;;;;;29.14;34.13;100930.28;112580;1214;58973;-85
2021/08/20 10:52:42;;;;;;;5.10;3.40;;;;;;;29.13;34.38;100925.59;112540;1214;64746;-84
2021/08/20 10:55:10;;;;;;;5.50;3.40;;;;;;;29.13;34.27;100929.13;112567;1213;64842;-83
2021/08/20 10:57:41;;;;;;;6.20;3.30;;;;;;;29.15;34.36;100925.36;112711;1213;60274;-82
2021/08/20 11:00:37;;;;;;;6.90;3.50;;;;;;;29.15;34.23;100926.77;112624;1220;60186;-84
2021/08/20 11:03:04;;;;;;;5.70;3.10;;;;;;;29.15;34.25;100928.56;112628;1220;65040;-83
2021/08/20 11:05:53;;;;;;;4.90;3.10;;;;;;;29.16;34.37;100925.79;112931;1220;64667;-89
2021/08/20 11:08:37;;;;;;;4.60;2.80;;;;;;;29.16;34.36;100924.87;112734;1213;60226;-87
2021/08/20 11:11:50;;;;;;;5.00;3.30;;;;;;;29.17;34.28;100921.20;112720;1220;60195;-84
2021/08/20 11:14:38;;;;;;;5.70;3.40;;;;;;;29.16;34.18;100917.11;112882;1212;63760;-84
2021/08/20 11:17:07;;;;;;;5.70;3.40;;;;;;;29.16;34.31;100914.73;112915;1212;64943;-83
2021/08/20 11:19:44;;;;;;;5.80;3.80;;;;;;;29.16;34.12;100911.45;112656;1216;60274;-86
2021/08/20 11:22:32;;;;;;;5.60;3.40;;;;;;;29.16;34.08;100906.90;112912;1219;60131;-87
2021/08/20 11:25:17;;;;;;;5.60;3.70;;;;;;;29.16;34.21;100901.63;112865;1220;63727;-84
2021/08/20 11:28:37;;;;;;;5.60;3.20;;;;;;;29.16;34.28;100897.68;112909;1214;65038;-87
2021/08/20 11:31:14;;;;;;;4.90;3.20;;;;;;;29.16;34.36;100890.64;112589;1216;60150;-87
2021/08/20 11:33:49;;;;;;;4.40;3.20;;;;;;;29.16;34.32;100883.21;112636;1214;60130;-88
2021/08/20 11:36:42;;;;;;;;;;;;;;;;;;;;;
2021/08/20 11:39:10;;;;;;;5.20;3.50;;;;;;;29.16;34.38;100874.67;112592;1223;64960;-84
2021/08/20 11:41:44;;;;;;;5.50;3.50;;;;;;;29.16;34.33;100875.90;112611;1214;60109;-90
2021/08/20 11:44:14;;;;;;;5.00;3.30;;;;;;;29.17;34.42;100873.70;112698;1214;60268;-86
2021/08/20 11:46:48;;;;;;;4.80;3.30;;;;;;;29.17;34.36;100870.23;112628;1216;63961;-85
2021/08/20 11:49:31;;;;;;;4.60;3.10;;;;;;;29.17;34.38;100864.05;112578;1216;66025;-84
2021/08/20 11:52:14;;;;;;;6.30;3.40;;;;;;;29.17;34.29;100862.05;112568;1214;60243;-82
2021/08/20 11:54:45;;;;;;;4.70;3.20;;;;;;;29.18;34.32;100855.63;112585;1214;60578;-88
2021/08/20 11:57:13;;;;;;;4.80;3.30;;;;;;;29.18;34.54;100849.65;112622;1214;63717;-84